San Diego, California
Traffic Map
Current Weather Conditions
San Diego, California
Broken Clouds
Broken Clouds
64°
Feels Like: 64°
Wind Chill: 64° Ceiling: 2400
Heat Index: 64° Visibility: 10mi
Dew Point: 55° Wind: 6mph
Humidity: 72% Direction: 300° (WNW)
Pressure: 30.01in Gusts: 0mph
Raw Report DataKSAN 180509Z 30005KT 10SM BKN024 18/13 A3001 RMK AO2 T01780128
Traffic Incident Summary
Active as of:
Severity:
Category:
InformationThere was an issue retrieving the traffic information for this location. Please try a different location or try again shortly.
Advertisements